sensor_id;sensor_type;location;lat;lon;timestamp;P1;durP1;ratioP1;P2;durP2;ratioP2
1799;SDS011;919;48.274;12.292;2023-02-11T00:01:23;20.57;;;13.00;;
1799;SDS011;919;48.274;12.292;2023-02-11T00:03:52;21.90;;;14.10;;
1799;SDS011;919;48.274;12.292;2023-02-11T00:06:20;26.90;;;14.20;;
1799;SDS011;919;48.274;12.292;2023-02-11T00:08:47;27.60;;;14.67;;
1799;SDS011;919;48.274;12.292;2023-02-11T00:11:15;24.70;;;14.13;;
1799;SDS011;919;48.274;12.292;2023-02-11T00:13:43;30.77;;;15.23;;
1799;SDS011;919;48.274;12.292;2023-02-11T00:16:11;29.90;;;14.50;;
1799;SDS011;919;48.274;12.292;2023-02-11T00:18:39;28.97;;;14.47;;
1799;SDS011;919;48.274;12.292;2023-02-11T00:21:06;24.87;;;13.60;;
1799;SDS011;919;48.274;12.292;2023-02-11T00:23:35;22.10;;;13.33;;
1799;SDS011;919;48.274;12.292;2023-02-11T00:26:02;28.87;;;16.10;;
1799;SDS011;919;48.274;12.292;2023-02-11T00:28:29;23.40;;;14.00;;
1799;SDS011;919;48.274;12.292;2023-02-11T00:30:56;21.80;;;12.33;;
1799;SDS011;919;48.274;12.292;2023-02-11T00:33:25;24.33;;;12.80;;
1799;SDS011;919;48.274;12.292;2023-02-11T00:35:52;23.70;;;12.30;;
1799;SDS011;919;48.274;12.292;2023-02-11T00:38:19;23.60;;;13.07;;
1799;SDS011;919;48.274;12.292;2023-02-11T00:40:47;26.97;;;13.43;;
1799;SDS011;919;48.274;12.292;2023-02-11T00:43:13;28.50;;;13.37;;
1799;SDS011;919;48.274;12.292;2023-02-11T00:45:40;25.20;;;13.60;;
1799;SDS011;919;48.274;12.292;2023-02-11T00:48:07;25.83;;;13.13;;
1799;SDS011;919;48.274;12.292;2023-02-11T00:50:33;25.97;;;15.90;;
1799;SDS011;919;48.274;12.292;2023-02-11T00:53:00;31.20;;;16.50;;
1799;SDS011;919;48.274;12.292;2023-02-11T00:55:27;31.20;;;14.93;;
1799;SDS011;919;48.274;12.292;2023-02-11T00:57:55;25.10;;;13.50;;
1799;SDS011;919;48.274;12.292;2023-02-11T01:00:22;27.93;;;13.90;;
1799;SDS011;919;48.274;12.292;2023-02-11T01:02:49;25.83;;;14.60;;
1799;SDS011;919;48.274;12.292;2023-02-11T01:05:16;23.70;;;14.00;;
1799;SDS011;919;48.274;12.292;2023-02-11T01:07:43;30.63;;;13.33;;
1799;SDS011;919;48.274;12.292;2023-02-11T01:10:09;24.20;;;13.50;;
1799;SDS011;919;48.274;12.292;2023-02-11T01:12:36;22.00;;;13.93;;
1799;SDS011;919;48.274;12.292;2023-02-11T01:15:07;24.70;;;13.00;;
1799;SDS011;919;48.274;12.292;2023-02-11T01:17:34;24.00;;;13.60;;
1799;SDS011;919;48.274;12.292;2023-02-11T01:20:02;22.50;;;13.30;;
1799;SDS011;919;48.274;12.292;2023-02-11T01:22:29;29.43;;;16.40;;
1799;SDS011;919;48.274;12.292;2023-02-11T01:24:56;26.53;;;14.80;;
1799;SDS011;919;48.274;12.292;2023-02-11T01:27:22;26.33;;;14.60;;
1799;SDS011;919;48.274;12.292;2023-02-11T01:29:49;27.80;;;14.80;;
1799;SDS011;919;48.274;12.292;2023-02-11T01:32:17;22.80;;;14.20;;
1799;SDS011;919;48.274;12.292;2023-02-11T01:34:44;32.00;;;15.27;;
1799;SDS011;919;48.274;12.292;2023-02-11T01:37:10;26.87;;;14.43;;
1799;SDS011;919;48.274;12.292;2023-02-11T01:39:37;19.67;;;12.30;;
1799;SDS011;919;48.274;12.292;2023-02-11T01:42:04;28.70;;;15.37;;
1799;SDS011;919;48.274;12.292;2023-02-11T01:44:32;23.00;;;14.13;;
1799;SDS011;919;48.274;12.292;2023-02-11T01:47:00;22.47;;;13.77;;
1799;SDS011;919;48.274;12.292;2023-02-11T01:49:31;26.23;;;14.57;;
1799;SDS011;919;48.274;12.292;2023-02-11T01:52:00;22.17;;;12.60;;
1799;SDS011;919;48.274;12.292;2023-02-11T01:54:34;24.00;;;13.70;;
1799;SDS011;919;48.274;12.292;2023-02-11T01:57:22;26.07;;;12.20;;
1799;SDS011;919;48.274;12.292;2023-02-11T01:59:53;25.43;;;14.03;;
1799;SDS011;919;48.274;12.292;2023-02-11T02:02:25;21.00;;;12.20;;
1799;SDS011;919;48.274;12.292;2023-02-11T02:04:58;23.53;;;14.50;;
1799;SDS011;919;48.274;12.292;2023-02-11T02:07:31;22.97;;;12.53;;
1799;SDS011;919;48.274;12.292;2023-02-11T02:10:02;24.57;;;13.73;;
1799;SDS011;919;48.274;12.292;2023-02-11T02:12:32;25.00;;;15.30;;
1799;SDS011;919;48.274;12.292;2023-02-11T02:15:18;25.63;;;14.87;;
1799;SDS011;919;48.274;12.292;2023-02-11T02:17:56;20.90;;;12.10;;
1799;SDS011;919;48.274;12.292;2023-02-11T02:20:38;28.50;;;14.30;;
1799;SDS011;919;48.274;12.292;2023-02-11T02:23:34;22.20;;;13.70;;
1799;SDS011;919;48.274;12.292;2023-02-11T02:35:08;25.00;;;12.40;;
1799;SDS011;919;48.274;12.292;2023-02-11T02:37:40;25.03;;;13.97;;
1799;SDS011;919;48.274;12.292;2023-02-11T02:40:14;27.50;;;13.77;;
1799;SDS011;919;48.274;12.292;2023-02-11T02:42:45;22.17;;;12.60;;
1799;SDS011;919;48.274;12.292;2023-02-11T02:45:13;25.00;;;13.80;;
1799;SDS011;919;48.274;12.292;2023-02-11T02:47:41;23.73;;;13.60;;
1799;SDS011;919;48.274;12.292;2023-02-11T02:50:08;27.50;;;14.77;;
1799;SDS011;919;48.274;12.292;2023-02-11T02:52:38;28.97;;;16.67;;
1799;SDS011;919;48.274;12.292;2023-02-11T02:55:16;30.50;;;15.40;;
1799;SDS011;919;48.274;12.292;2023-02-11T02:57:54;33.90;;;15.97;;
1799;SDS011;919;48.274;12.292;2023-02-11T03:00:31;30.17;;;15.70;;
1799;SDS011;919;48.274;12.292;2023-02-11T03:03:09;26.17;;;15.10;;
1799;SDS011;919;48.274;12.292;2023-02-11T03:05:46;27.10;;;15.33;;
1799;SDS011;919;48.274;12.292;2023-02-11T03:08:20;29.33;;;15.37;;
1799;SDS011;919;48.274;12.292;2023-02-11T03:10:52;20.80;;;13.20;;
1799;SDS011;919;48.274;12.292;2023-02-11T03:13:21;26.90;;;15.00;;
1799;SDS011;919;48.274;12.292;2023-02-11T03:15:52;28.50;;;14.80;;
1799;SDS011;919;48.274;12.292;2023-02-11T03:18:25;28.87;;;14.70;;
1799;SDS011;919;48.274;12.292;2023-02-11T03:20:54;26.50;;;15.17;;
1799;SDS011;919;48.274;12.292;2023-02-11T03:23:22;24.33;;;14.60;;
1799;SDS011;919;48.274;12.292;2023-02-11T03:25:55;29.23;;;14.37;;
1799;SDS011;919;48.274;12.292;2023-02-11T03:28:26;21.07;;;13.47;;
1799;SDS011;919;48.274;12.292;2023-02-11T03:31:00;26.17;;;14.30;;
1799;SDS011;919;48.274;12.292;2023-02-11T03:33:36;22.00;;;14.27;;
1799;SDS011;919;48.274;12.292;2023-02-11T03:36:08;25.70;;;13.10;;
1799;SDS011;919;48.274;12.292;2023-02-11T03:38:42;19.57;;;12.07;;
1799;SDS011;919;48.274;12.292;2023-02-11T03:41:13;19.93;;;12.77;;
1799;SDS011;919;48.274;12.292;2023-02-11T03:43:43;20.07;;;12.30;;
1799;SDS011;919;48.274;12.292;2023-02-11T03:46:14;22.70;;;12.60;;
1799;SDS011;919;48.274;12.292;2023-02-11T03:48:47;22.10;;;13.50;;
1799;SDS011;919;48.274;12.292;2023-02-11T03:51:16;28.90;;;14.13;;
1799;SDS011;919;48.274;12.292;2023-02-11T03:53:45;26.23;;;13.47;;
1799;SDS011;919;48.274;12.292;2023-02-11T03:56:14;23.80;;;14.00;;
1799;SDS011;919;48.274;12.292;2023-02-11T03:58:44;23.97;;;14.33;;
1799;SDS011;919;48.274;12.292;2023-02-11T04:01:11;29.30;;;13.47;;
1799;SDS011;919;48.274;12.292;2023-02-11T04:03:38;28.40;;;14.60;;
1799;SDS011;919;48.274;12.292;2023-02-11T04:06:06;32.60;;;15.00;;
1799;SDS011;919;48.274;12.292;2023-02-11T04:08:33;28.40;;;13.53;;
1799;SDS011;919;48.274;12.292;2023-02-11T04:11:00;27.47;;;15.30;;
1799;SDS011;919;48.274;12.292;2023-02-11T04:13:27;32.37;;;15.43;;
1799;SDS011;919;48.274;12.292;2023-02-11T04:15:54;26.40;;;15.60;;
1799;SDS011;919;48.274;12.292;2023-02-11T04:18:21;26.40;;;14.60;;
1799;SDS011;919;48.274;12.292;2023-02-11T04:20:47;31.23;;;14.90;;
1799;SDS011;919;48.274;12.292;2023-02-11T04:23:17;25.60;;;14.40;;
1799;SDS011;919;48.274;12.292;2023-02-11T04:25:43;26.80;;;13.57;;
1799;SDS011;919;48.274;12.292;2023-02-11T04:28:10;26.27;;;13.97;;
1799;SDS011;919;48.274;12.292;2023-02-11T04:30:37;26.00;;;14.47;;
1799;SDS011;919;48.274;12.292;2023-02-11T04:33:03;26.87;;;15.00;;
1799;SDS011;919;48.274;12.292;2023-02-11T04:35:30;25.67;;;13.37;;
1799;SDS011;919;48.274;12.292;2023-02-11T04:37:57;29.47;;;15.83;;
1799;SDS011;919;48.274;12.292;2023-02-11T04:40:25;27.33;;;15.17;;
1799;SDS011;919;48.274;12.292;2023-02-11T04:42:52;23.30;;;13.37;;
1799;SDS011;919;48.274;12.292;2023-02-11T04:45:18;27.57;;;15.80;;
1799;SDS011;919;48.274;12.292;2023-02-11T04:47:45;24.60;;;14.07;;
1799;SDS011;919;48.274;12.292;2023-02-11T04:50:11;26.70;;;13.80;;
1799;SDS011;919;48.274;12.292;2023-02-11T04:52:38;28.03;;;15.20;;
1799;SDS011;919;48.274;12.292;2023-02-11T04:55:05;23.13;;;13.20;;
1799;SDS011;919;48.274;12.292;2023-02-11T04:57:33;29.43;;;14.47;;
1799;SDS011;919;48.274;12.292;2023-02-11T05:00:00;24.90;;;14.37;;
1799;SDS011;919;48.274;12.292;2023-02-11T05:02:27;27.43;;;14.73;;
1799;SDS011;919;48.274;12.292;2023-02-11T05:04:53;27.47;;;15.20;;
1799;SDS011;919;48.274;12.292;2023-02-11T05:07:20;23.40;;;13.30;;
1799;SDS011;919;48.274;12.292;2023-02-11T05:09:47;27.73;;;15.10;;
1799;SDS011;919;48.274;12.292;2023-02-11T05:12:13;29.80;;;13.47;;
1799;SDS011;919;48.274;12.292;2023-02-11T05:14:41;24.73;;;14.07;;
1799;SDS011;919;48.274;12.292;2023-02-11T05:17:08;25.77;;;14.77;;
1799;SDS011;919;48.274;12.292;2023-02-11T05:19:35;31.17;;;14.40;;
1799;SDS011;919;48.274;12.292;2023-02-11T05:22:01;31.20;;;15.50;;
1799;SDS011;919;48.274;12.292;2023-02-11T05:24:28;19.03;;;13.50;;
1799;SDS011;919;48.274;12.292;2023-02-11T05:26:55;30.43;;;14.87;;
1799;SDS011;919;48.274;12.292;2023-02-11T05:29:22;27.00;;;15.40;;
1799;SDS011;919;48.274;12.292;2023-02-11T05:31:49;35.13;;;16.20;;
1799;SDS011;919;48.274;12.292;2023-02-11T05:34:16;24.50;;;14.50;;
1799;SDS011;919;48.274;12.292;2023-02-11T05:36:43;32.20;;;16.27;;
1799;SDS011;919;48.274;12.292;2023-02-11T05:39:10;26.93;;;14.20;;
1799;SDS011;919;48.274;12.292;2023-02-11T05:41:36;25.57;;;16.13;;
1799;SDS011;919;48.274;12.292;2023-02-11T05:44:03;24.00;;;14.60;;
1799;SDS011;919;48.274;12.292;2023-02-11T05:46:30;24.40;;;14.07;;
1799;SDS011;919;48.274;12.292;2023-02-11T05:48:58;26.37;;;14.10;;
1799;SDS011;919;48.274;12.292;2023-02-11T05:51:24;27.57;;;15.07;;
1799;SDS011;919;48.274;12.292;2023-02-11T05:53:51;30.20;;;15.80;;
1799;SDS011;919;48.274;12.292;2023-02-11T05:56:18;25.57;;;14.70;;
1799;SDS011;919;48.274;12.292;2023-02-11T05:58:44;25.03;;;13.23;;
1799;SDS011;919;48.274;12.292;2023-02-11T06:01:11;40.20;;;16.27;;
1799;SDS011;919;48.274;12.292;2023-02-11T06:03:38;27.50;;;14.40;;
1799;SDS011;919;48.274;12.292;2023-02-11T06:06:09;21.00;;;13.80;;
1799;SDS011;919;48.274;12.292;2023-02-11T06:08:36;24.67;;;13.63;;
1799;SDS011;919;48.274;12.292;2023-02-11T06:11:03;25.53;;;13.70;;
1799;SDS011;919;48.274;12.292;2023-02-11T06:13:30;22.50;;;13.10;;
1799;SDS011;919;48.274;12.292;2023-02-11T06:15:57;29.00;;;15.87;;
1799;SDS011;919;48.274;12.292;2023-02-11T06:18:24;28.17;;;16.60;;
1799;SDS011;919;48.274;12.292;2023-02-11T06:20:51;28.27;;;15.37;;
1799;SDS011;919;48.274;12.292;2023-02-11T06:23:19;31.80;;;17.53;;
1799;SDS011;919;48.274;12.292;2023-02-11T06:25:46;28.13;;;17.00;;
1799;SDS011;919;48.274;12.292;2023-02-11T06:28:12;28.87;;;16.57;;
1799;SDS011;919;48.274;12.292;2023-02-11T06:30:39;31.67;;;16.90;;
1799;SDS011;919;48.274;12.292;2023-02-11T06:33:06;26.57;;;15.23;;
1799;SDS011;919;48.274;12.292;2023-02-11T06:35:32;26.67;;;15.40;;
1799;SDS011;919;48.274;12.292;2023-02-11T06:38:00;26.87;;;15.37;;
1799;SDS011;919;48.274;12.292;2023-02-11T06:40:29;25.80;;;14.70;;
1799;SDS011;919;48.274;12.292;2023-02-11T06:42:55;31.17;;;18.33;;
1799;SDS011;919;48.274;12.292;2023-02-11T06:45:22;31.07;;;17.07;;
1799;SDS011;919;48.274;12.292;2023-02-11T06:47:49;25.40;;;15.53;;
1799;SDS011;919;48.274;12.292;2023-02-11T06:50:16;30.47;;;16.40;;
1799;SDS011;919;48.274;12.292;2023-02-11T06:52:43;27.30;;;15.83;;
1799;SDS011;919;48.274;12.292;2023-02-11T06:55:10;32.47;;;18.13;;
1799;SDS011;919;48.274;12.292;2023-02-11T06:57:38;34.93;;;17.63;;
1799;SDS011;919;48.274;12.292;2023-02-11T07:00:05;30.53;;;15.70;;
1799;SDS011;919;48.274;12.292;2023-02-11T07:02:32;30.20;;;15.90;;
1799;SDS011;919;48.274;12.292;2023-02-11T07:04:59;23.23;;;14.73;;
1799;SDS011;919;48.274;12.292;2023-02-11T07:07:26;25.93;;;14.60;;
1799;SDS011;919;48.274;12.292;2023-02-11T07:09:53;23.57;;;14.60;;
1799;SDS011;919;48.274;12.292;2023-02-11T07:12:19;31.10;;;16.83;;
1799;SDS011;919;48.274;12.292;2023-02-11T07:14:47;31.07;;;16.30;;
1799;SDS011;919;48.274;12.292;2023-02-11T07:17:14;27.33;;;15.20;;
1799;SDS011;919;48.274;12.292;2023-02-11T07:19:41;28.20;;;16.50;;
1799;SDS011;919;48.274;12.292;2023-02-11T07:22:07;30.33;;;16.93;;
1799;SDS011;919;48.274;12.292;2023-02-11T07:24:34;28.97;;;15.97;;
1799;SDS011;919;48.274;12.292;2023-02-11T07:27:01;25.70;;;14.07;;
1799;SDS011;919;48.274;12.292;2023-02-11T07:29:27;25.67;;;13.40;;
1799;SDS011;919;48.274;12.292;2023-02-11T07:31:56;29.70;;;15.20;;
1799;SDS011;919;48.274;12.292;2023-02-11T07:34:22;30.83;;;16.80;;
1799;SDS011;919;48.274;12.292;2023-02-11T07:36:49;25.70;;;14.10;;
1799;SDS011;919;48.274;12.292;2023-02-11T07:39:16;27.20;;;15.67;;
1799;SDS011;919;48.274;12.292;2023-02-11T07:41:43;32.37;;;18.50;;
1799;SDS011;919;48.274;12.292;2023-02-11T07:44:11;31.67;;;16.23;;
1799;SDS011;919;48.274;12.292;2023-02-11T07:46:38;32.50;;;16.30;;
1799;SDS011;919;48.274;12.292;2023-02-11T07:49:08;30.03;;;15.77;;
1799;SDS011;919;48.274;12.292;2023-02-11T07:51:35;31.03;;;17.47;;
1799;SDS011;919;48.274;12.292;2023-02-11T07:54:02;23.00;;;13.70;;
1799;SDS011;919;48.274;12.292;2023-02-11T07:56:29;25.17;;;14.00;;
1799;SDS011;919;48.274;12.292;2023-02-11T07:58:58;19.33;;;13.20;;
1799;SDS011;919;48.274;12.292;2023-02-11T08:01:26;25.07;;;13.10;;
1799;SDS011;919;48.274;12.292;2023-02-11T08:03:54;20.13;;;13.70;;
1799;SDS011;919;48.274;12.292;2023-02-11T08:06:24;25.83;;;12.60;;
1799;SDS011;919;48.274;12.292;2023-02-11T08:08:52;23.00;;;12.30;;
1799;SDS011;919;48.274;12.292;2023-02-11T08:11:19;18.63;;;11.87;;
1799;SDS011;919;48.274;12.292;2023-02-11T08:13:47;17.30;;;12.50;;
1799;SDS011;919;48.274;12.292;2023-02-11T08:16:16;22.70;;;12.60;;
1799;SDS011;919;48.274;12.292;2023-02-11T08:18:44;24.20;;;12.90;;
1799;SDS011;919;48.274;12.292;2023-02-11T08:21:11;28.20;;;16.17;;
1799;SDS011;919;48.274;12.292;2023-02-11T08:23:39;24.63;;;13.67;;
1799;SDS011;919;48.274;12.292;2023-02-11T08:26:08;25.13;;;13.80;;
1799;SDS011;919;48.274;12.292;2023-02-11T08:28:38;22.87;;;14.67;;
1799;SDS011;919;48.274;12.292;2023-02-11T08:31:06;22.57;;;13.13;;
1799;SDS011;919;48.274;12.292;2023-02-11T08:33:33;24.80;;;12.93;;
1799;SDS011;919;48.274;12.292;2023-02-11T08:36:00;20.47;;;12.07;;
1799;SDS011;919;48.274;12.292;2023-02-11T08:38:32;25.90;;;13.80;;
1799;SDS011;919;48.274;12.292;2023-02-11T08:41:00;23.17;;;14.53;;
1799;SDS011;919;48.274;12.292;2023-02-11T08:43:27;30.93;;;14.10;;
1799;SDS011;919;48.274;12.292;2023-02-11T08:45:54;27.17;;;15.53;;
1799;SDS011;919;48.274;12.292;2023-02-11T08:48:20;23.80;;;13.40;;
1799;SDS011;919;48.274;12.292;2023-02-11T08:50:47;21.63;;;12.87;;
1799;SDS011;919;48.274;12.292;2023-02-11T08:53:14;26.80;;;13.37;;
1799;SDS011;919;48.274;12.292;2023-02-11T08:55:46;18.23;;;11.50;;
1799;SDS011;919;48.274;12.292;2023-02-11T08:58:15;20.63;;;12.37;;
1799;SDS011;919;48.274;12.292;2023-02-11T09:00:41;24.93;;;13.70;;
1799;SDS011;919;48.274;12.292;2023-02-11T09:03:09;16.53;;;12.10;;
1799;SDS011;919;48.274;12.292;2023-02-11T09:05:39;21.97;;;11.90;;
1799;SDS011;919;48.274;12.292;2023-02-11T09:08:06;21.77;;;13.57;;
1799;SDS011;919;48.274;12.292;2023-02-11T09:10:32;22.70;;;12.73;;
1799;SDS011;919;48.274;12.292;2023-02-11T09:12:59;22.83;;;13.40;;
1799;SDS011;919;48.274;12.292;2023-02-11T09:15:27;21.27;;;11.90;;
1799;SDS011;919;48.274;12.292;2023-02-11T09:17:54;19.70;;;12.20;;
1799;SDS011;919;48.274;12.292;2023-02-11T09:20:20;19.90;;;12.47;;
1799;SDS011;919;48.274;12.292;2023-02-11T09:22:47;17.50;;;11.23;;
1799;SDS011;919;48.274;12.292;2023-02-11T09:25:14;16.70;;;11.47;;
1799;SDS011;919;48.274;12.292;2023-02-11T09:27:41;24.90;;;13.07;;
1799;SDS011;919;48.274;12.292;2023-02-11T09:30:08;18.23;;;10.83;;
1799;SDS011;919;48.274;12.292;2023-02-11T09:32:37;18.10;;;11.07;;
1799;SDS011;919;48.274;12.292;2023-02-11T09:35:04;14.10;;;9.30;;
1799;SDS011;919;48.274;12.292;2023-02-11T09:37:31;13.93;;;8.57;;
1799;SDS011;919;48.274;12.292;2023-02-11T09:39:57;15.83;;;9.93;;
1799;SDS011;919;48.274;12.292;2023-02-11T09:42:32;13.47;;;9.03;;
1799;SDS011;919;48.274;12.292;2023-02-11T09:45:09;11.73;;;8.27;;
1799;SDS011;919;48.274;12.292;2023-02-11T09:47:44;10.70;;;7.70;;
1799;SDS011;919;48.274;12.292;2023-02-11T09:50:15;11.97;;;8.57;;
1799;SDS011;919;48.274;12.292;2023-02-11T09:52:45;15.23;;;10.10;;
1799;SDS011;919;48.274;12.292;2023-02-11T09:55:19;15.97;;;11.23;;
1799;SDS011;919;48.274;12.292;2023-02-11T09:57:47;16.43;;;10.37;;
1799;SDS011;919;48.274;12.292;2023-02-11T10:00:16;14.57;;;10.33;;
1799;SDS011;919;48.274;12.292;2023-02-11T10:02:53;15.67;;;9.97;;
1799;SDS011;919;48.274;12.292;2023-02-11T10:05:39;19.33;;;10.30;;
1799;SDS011;919;48.274;12.292;2023-02-11T10:08:17;19.07;;;12.13;;
1799;SDS011;919;48.274;12.292;2023-02-11T10:10:53;19.23;;;10.60;;
1799;SDS011;919;48.274;12.292;2023-02-11T10:13:38;17.37;;;9.93;;
1799;SDS011;919;48.274;12.292;2023-02-11T10:16:19;19.53;;;10.37;;
1799;SDS011;919;48.274;12.292;2023-02-11T10:19:00;16.67;;;10.43;;
1799;SDS011;919;48.274;12.292;2023-02-11T10:21:38;18.70;;;11.83;;
1799;SDS011;919;48.274;12.292;2023-02-11T10:24:14;17.47;;;11.20;;
1799;SDS011;919;48.274;12.292;2023-02-11T10:26:42;21.40;;;12.77;;
1799;SDS011;919;48.274;12.292;2023-02-11T10:29:13;17.50;;;11.90;;
1799;SDS011;919;48.274;12.292;2023-02-11T10:31:50;21.27;;;13.77;;
1799;SDS011;919;48.274;12.292;2023-02-11T10:34:19;19.23;;;11.13;;
1799;SDS011;919;48.274;12.292;2023-02-11T10:36:46;23.03;;;11.80;;
1799;SDS011;919;48.274;12.292;2023-02-11T10:39:13;17.87;;;12.17;;
1799;SDS011;919;48.274;12.292;2023-02-11T10:41:43;20.47;;;12.50;;
1799;SDS011;919;48.274;12.292;2023-02-11T10:44:22;17.97;;;10.63;;
1799;SDS011;919;48.274;12.292;2023-02-11T10:46:52;20.03;;;12.40;;
1799;SDS011;919;48.274;12.292;2023-02-11T10:49:33;19.87;;;12.37;;
1799;SDS011;919;48.274;12.292;2023-02-11T10:52:13;18.13;;;12.40;;
1799;SDS011;919;48.274;12.292;2023-02-11T10:55:00;21.70;;;12.73;;
1799;SDS011;919;48.274;12.292;2023-02-11T10:57:32;20.43;;;11.77;;
1799;SDS011;919;48.274;12.292;2023-02-11T11:00:03;16.80;;;12.57;;
1799;SDS011;919;48.274;12.292;2023-02-11T11:02:34;18.13;;;11.80;;
1799;SDS011;919;48.274;12.292;2023-02-11T11:05:05;16.67;;;11.17;;
1799;SDS011;919;48.274;12.292;2023-02-11T11:07:41;17.37;;;12.20;;
1799;SDS011;919;48.274;12.292;2023-02-11T11:10:24;20.20;;;12.67;;
1799;SDS011;919;48.274;12.292;2023-02-11T11:12:57;17.00;;;11.00;;
1799;SDS011;919;48.274;12.292;2023-02-11T11:15:24;22.80;;;13.00;;
1799;SDS011;919;48.274;12.292;2023-02-11T11:18:07;18.57;;;12.20;;
1799;SDS011;919;48.274;12.292;2023-02-11T11:20:37;21.47;;;12.70;;
1799;SDS011;919;48.274;12.292;2023-02-11T11:23:09;19.03;;;11.30;;
1799;SDS011;919;48.274;12.292;2023-02-11T11:25:44;19.20;;;12.00;;
1799;SDS011;919;48.274;12.292;2023-02-11T11:28:24;22.87;;;12.37;;
1799;SDS011;919;48.274;12.292;2023-02-11T11:30:53;18.33;;;11.73;;
1799;SDS011;919;48.274;12.292;2023-02-11T11:33:23;20.93;;;13.13;;
1799;SDS011;919;48.274;12.292;2023-02-11T11:35:56;21.03;;;12.33;;
1799;SDS011;919;48.274;12.292;2023-02-11T11:38:25;17.70;;;12.67;;
1799;SDS011;919;48.274;12.292;2023-02-11T11:41:13;18.10;;;11.10;;
1799;SDS011;919;48.274;12.292;2023-02-11T11:43:54;21.50;;;13.57;;
1799;SDS011;919;48.274;12.292;2023-02-11T11:46:23;18.10;;;11.90;;
1799;SDS011;919;48.274;12.292;2023-02-11T11:48:51;19.10;;;11.97;;
1799;SDS011;919;48.274;12.292;2023-02-11T11:51:28;22.80;;;12.80;;
1799;SDS011;919;48.274;12.292;2023-02-11T11:53:57;20.93;;;11.33;;
1799;SDS011;919;48.274;12.292;2023-02-11T11:56:28;20.67;;;13.67;;
1799;SDS011;919;48.274;12.292;2023-02-11T11:58:58;18.17;;;11.60;;
1799;SDS011;919;48.274;12.292;2023-02-11T12:01:30;25.50;;;13.47;;
1799;SDS011;919;48.274;12.292;2023-02-11T12:04:15;23.90;;;13.00;;
1799;SDS011;919;48.274;12.292;2023-02-11T12:07:01;21.37;;;11.83;;
1799;SDS011;919;48.274;12.292;2023-02-11T12:09:44;16.10;;;10.90;;
1799;SDS011;919;48.274;12.292;2023-02-11T12:12:28;19.33;;;11.50;;
1799;SDS011;919;48.274;12.292;2023-02-11T12:15:10;20.30;;;12.07;;
1799;SDS011;919;48.274;12.292;2023-02-11T12:17:51;18.93;;;11.80;;
1799;SDS011;919;48.274;12.292;2023-02-11T12:20:31;18.80;;;12.80;;
1799;SDS011;919;48.274;12.292;2023-02-11T12:23:16;20.33;;;11.33;;
1799;SDS011;919;48.274;12.292;2023-02-11T12:26:02;19.47;;;12.40;;
1799;SDS011;919;48.274;12.292;2023-02-11T12:28:39;23.17;;;12.17;;
1799;SDS011;919;48.274;12.292;2023-02-11T12:31:21;20.03;;;12.40;;
1799;SDS011;919;48.274;12.292;2023-02-11T12:33:59;20.10;;;12.27;;
1799;SDS011;919;48.274;12.292;2023-02-11T12:36:42;21.00;;;12.27;;
1799;SDS011;919;48.274;12.292;2023-02-11T12:39:22;23.37;;;13.43;;
1799;SDS011;919;48.274;12.292;2023-02-11T12:42:15;25.13;;;13.10;;
1799;SDS011;919;48.274;12.292;2023-02-11T12:45:16;19.97;;;11.37;;
1799;SDS011;919;48.274;12.292;2023-02-11T12:47:54;19.20;;;11.30;;
1799;SDS011;919;48.274;12.292;2023-02-11T12:50:33;19.70;;;12.00;;
1799;SDS011;919;48.274;12.292;2023-02-11T12:53:09;18.53;;;11.43;;
1799;SDS011;919;48.274;12.292;2023-02-11T12:55:53;21.13;;;12.53;;
1799;SDS011;919;48.274;12.292;2023-02-11T12:58:24;21.80;;;11.93;;
1799;SDS011;919;48.274;12.292;2023-02-11T13:00:57;18.47;;;10.80;;
1799;SDS011;919;48.274;12.292;2023-02-11T13:03:29;17.80;;;11.93;;
1799;SDS011;919;48.274;12.292;2023-02-11T13:06:01;22.87;;;11.43;;
1799;SDS011;919;48.274;12.292;2023-02-11T13:08:31;20.33;;;11.70;;
1799;SDS011;919;48.274;12.292;2023-02-11T13:11:02;17.03;;;11.37;;
1799;SDS011;919;48.274;12.292;2023-02-11T13:13:36;20.80;;;12.97;;
1799;SDS011;919;48.274;12.292;2023-02-11T13:16:13;21.67;;;11.90;;
1799;SDS011;919;48.274;12.292;2023-02-11T13:18:47;23.17;;;11.90;;
1799;SDS011;919;48.274;12.292;2023-02-11T13:21:24;21.23;;;11.47;;
1799;SDS011;919;48.274;12.292;2023-02-11T13:24:00;16.17;;;11.63;;
1799;SDS011;919;48.274;12.292;2023-02-11T13:26:38;21.47;;;11.57;;
1799;SDS011;919;48.274;12.292;2023-02-11T13:29:15;18.90;;;12.27;;
1799;SDS011;919;48.274;12.292;2023-02-11T13:31:52;16.33;;;10.13;;
1799;SDS011;919;48.274;12.292;2023-02-11T13:34:23;19.03;;;11.80;;
1799;SDS011;919;48.274;12.292;2023-02-11T13:36:54;18.17;;;11.80;;
1799;SDS011;919;48.274;12.292;2023-02-11T13:39:21;21.57;;;12.03;;
1799;SDS011;919;48.274;12.292;2023-02-11T13:41:49;19.13;;;11.20;;
1799;SDS011;919;48.274;12.292;2023-02-11T13:44:26;21.30;;;12.17;;
1799;SDS011;919;48.274;12.292;2023-02-11T13:46:54;18.90;;;12.20;;
1799;SDS011;919;48.274;12.292;2023-02-11T13:49:24;17.00;;;11.27;;
1799;SDS011;919;48.274;12.292;2023-02-11T13:51:55;19.40;;;12.33;;
1799;SDS011;919;48.274;12.292;2023-02-11T13:54:25;19.63;;;12.10;;
1799;SDS011;919;48.274;12.292;2023-02-11T13:57:18;18.57;;;11.27;;
1799;SDS011;919;48.274;12.292;2023-02-11T13:59:50;16.50;;;11.00;;
1799;SDS011;919;48.274;12.292;2023-02-11T14:02:20;17.00;;;10.70;;
1799;SDS011;919;48.274;12.292;2023-02-11T14:05:22;18.50;;;11.23;;
1799;SDS011;919;48.274;12.292;2023-02-11T14:08:18;21.00;;;12.60;;
1799;SDS011;919;48.274;12.292;2023-02-11T14:11:05;17.30;;;10.90;;
1799;SDS011;919;48.274;12.292;2023-02-11T14:14:02;16.90;;;10.63;;
1799;SDS011;919;48.274;12.292;2023-02-11T14:19:48;16.20;;;9.93;;
1799;SDS011;919;48.274;12.292;2023-02-11T14:22:17;14.33;;;9.50;;
1799;SDS011;919;48.274;12.292;2023-02-11T14:24:48;22.10;;;12.20;;
1799;SDS011;919;48.274;12.292;2023-02-11T14:27:20;17.67;;;10.87;;
1799;SDS011;919;48.274;12.292;2023-02-11T14:30:05;15.03;;;10.07;;
1799;SDS011;919;48.274;12.292;2023-02-11T14:32:42;17.93;;;10.70;;
1799;SDS011;919;48.274;12.292;2023-02-11T14:35:19;18.53;;;9.60;;
1799;SDS011;919;48.274;12.292;2023-02-11T14:37:54;20.40;;;10.20;;
1799;SDS011;919;48.274;12.292;2023-02-11T14:40:26;20.57;;;12.20;;
1799;SDS011;919;48.274;12.292;2023-02-11T14:42:56;17.77;;;11.23;;
1799;SDS011;919;48.274;12.292;2023-02-11T14:45:33;22.03;;;12.20;;
1799;SDS011;919;48.274;12.292;2023-02-11T14:48:02;23.00;;;11.50;;
1799;SDS011;919;48.274;12.292;2023-02-11T14:50:33;16.50;;;9.50;;
1799;SDS011;919;48.274;12.292;2023-02-11T14:53:05;20.23;;;9.33;;
1799;SDS011;919;48.274;12.292;2023-02-11T14:55:38;12.70;;;9.50;;
1799;SDS011;919;48.274;12.292;2023-02-11T14:58:10;15.33;;;9.77;;
1799;SDS011;919;48.274;12.292;2023-02-11T15:00:48;18.27;;;12.57;;
1799;SDS011;919;48.274;12.292;2023-02-11T15:06:06;15.37;;;9.63;;
1799;SDS011;919;48.274;12.292;2023-02-11T15:08:42;17.33;;;10.70;;
1799;SDS011;919;48.274;12.292;2023-02-11T15:11:12;16.00;;;10.47;;
1799;SDS011;919;48.274;12.292;2023-02-11T15:13:42;19.37;;;11.97;;
1799;SDS011;919;48.274;12.292;2023-02-11T15:16:13;15.50;;;10.33;;
1799;SDS011;919;48.274;12.292;2023-02-11T15:18:44;17.80;;;11.00;;
1799;SDS011;919;48.274;12.292;2023-02-11T15:21:13;13.00;;;9.50;;
1799;SDS011;919;48.274;12.292;2023-02-11T15:23:53;15.43;;;10.60;;
1799;SDS011;919;48.274;12.292;2023-02-11T15:26:21;16.77;;;11.07;;